createdAt,value
2023-02-04T00:02:25.774Z,99756.02
2023-02-04T00:04:52.533Z,99760.48
2023-02-04T00:07:18.901Z,99762.19
2023-02-04T00:09:49.392Z,99766.78
2023-02-04T00:12:16.876Z,99772.42
2023-02-04T00:14:43.265Z,99777.73
2023-02-04T00:17:12.165Z,99784.09
2023-02-04T00:19:39.687Z,99796.36
2023-02-04T00:22:07.282Z,99804.95
2023-02-04T00:24:34.779Z,99819.09
2023-02-04T00:27:01.749Z,99818.36
2023-02-04T00:29:28.448Z,99829.71
2023-02-04T00:31:55.311Z,99833.14
2023-02-04T00:34:21.744Z,99842.23
2023-02-04T00:36:48.804Z,99849.22
2023-02-04T00:39:16.460Z,99854.27
2023-02-04T00:41:42.787Z,99859.20
2023-02-04T00:44:09.134Z,99871.57
2023-02-04T00:46:35.492Z,99880.35
2023-02-04T00:49:05.925Z,99895.83
2023-02-04T00:51:32.373Z,99900.98
2023-02-04T00:53:58.740Z,99906.58
2023-02-04T00:56:25.249Z,99915.58
2023-02-04T00:58:51.614Z,99916.81
2023-02-04T01:01:18.002Z,99921.80
2023-02-04T01:03:44.432Z,99935.00
2023-02-04T01:06:11.457Z,99939.25
2023-02-04T01:08:37.797Z,99940.33
2023-02-04T01:11:04.594Z,99949.44
2023-02-04T01:13:31.011Z,99959.40
2023-02-04T01:15:57.498Z,99967.31
2023-02-04T01:18:23.976Z,99981.60
2023-02-04T01:20:50.478Z,99988.91
2023-02-04T01:23:16.895Z,99991.27
2023-02-04T01:25:43.334Z,99999.85
2023-02-04T01:28:09.890Z,100013.73
2023-02-04T01:30:36.581Z,100019.15
2023-02-04T01:33:03.008Z,100028.11
2023-02-04T01:35:29.328Z,100037.98
2023-02-04T01:37:55.697Z,100051.99
2023-02-04T01:40:22.208Z,100059.02
2023-02-04T01:42:48.849Z,100066.45
2023-02-04T01:45:15.230Z,100081.08
2023-02-04T01:47:42.035Z,100091.25
2023-02-04T01:50:12.885Z,100101.60
2023-02-04T01:52:40.363Z,100111.27
2023-02-04T01:55:21.283Z,100114.14
2023-02-04T01:57:50.132Z,100128.06
2023-02-04T02:00:22.011Z,100137.66
2023-02-04T02:02:50.634Z,100144.89
2023-02-04T02:05:43.377Z,100151.98
2023-02-04T02:08:10.621Z,100160.46
2023-02-04T02:10:39.846Z,100166.14
2023-02-04T02:13:08.158Z,100171.29
2023-02-04T02:15:38.924Z,100182.59
2023-02-04T02:18:05.968Z,100192.38
2023-02-04T02:20:32.942Z,100203.14
2023-02-04T02:23:26.318Z,100215.95
2023-02-04T02:25:52.839Z,100229.77
2023-02-04T02:28:22.207Z,100239.20
2023-02-04T02:30:49.737Z,100247.23
2023-02-04T02:33:19.044Z,100260.60
2023-02-04T02:35:49.900Z,100271.19
2023-02-04T02:38:18.660Z,100284.67
2023-02-04T02:40:46.235Z,100293.48
2023-02-04T02:43:20.845Z,100299.00
2023-02-04T02:45:48.169Z,100312.30
2023-02-04T02:48:14.640Z,100325.16
2023-02-04T02:50:41.745Z,100328.25
2023-02-04T02:53:13.057Z,100342.77
2023-02-04T02:55:39.843Z,100348.78
2023-02-04T02:58:15.594Z,100357.30
2023-02-04T03:00:42.008Z,100369.15
2023-02-04T03:03:17.103Z,100377.58
2023-02-04T03:05:46.611Z,100384.34
2023-02-04T03:08:14.736Z,100391.78
2023-02-04T03:10:41.934Z,100397.91
2023-02-04T03:13:09.579Z,100406.55
2023-02-04T03:15:36.769Z,100421.39
2023-02-04T03:18:03.215Z,100430.82
2023-02-04T03:20:31.182Z,100441.25
2023-02-04T03:22:58.431Z,100451.29
2023-02-04T03:25:27.518Z,100453.55
2023-02-04T03:27:57.349Z,100464.42
2023-02-04T03:30:25.132Z,100472.64
2023-02-04T03:32:51.852Z,100488.21
2023-02-04T03:35:19.082Z,100495.16
2023-02-04T03:37:45.597Z,100502.43
2023-02-04T03:40:12.969Z,100509.31
2023-02-04T03:42:39.323Z,100523.30
2023-02-04T03:45:06.113Z,100532.12
2023-02-04T03:47:32.624Z,100546.96
2023-02-04T03:49:59.468Z,100558.45
2023-02-04T03:52:25.876Z,100567.52
2023-02-04T03:54:52.326Z,100576.58
2023-02-04T03:57:18.693Z,100583.02
2023-02-04T03:59:45.139Z,100590.60
2023-02-04T04:02:11.458Z,100597.60
2023-02-04T04:04:37.853Z,100605.64
2023-02-04T04:07:04.284Z,100617.09
2023-02-04T04:09:30.626Z,100616.90
2023-02-04T04:11:57.019Z,100625.34
2023-02-04T04:14:23.411Z,100635.40
2023-02-04T04:16:49.808Z,100644.10
2023-02-04T04:19:16.335Z,100648.38
2023-02-04T04:21:42.649Z,100659.08
2023-02-04T04:24:09.018Z,100667.79
2023-02-04T04:26:35.353Z,100680.44
2023-02-04T04:29:01.686Z,100683.97
2023-02-04T04:31:28.140Z,100685.33
2023-02-04T04:33:54.616Z,100691.72
2023-02-04T04:36:20.959Z,100710.48
2023-02-04T04:38:47.324Z,100719.00
2023-02-04T04:41:13.726Z,100728.73
2023-02-04T04:43:40.084Z,100740.54
2023-02-04T04:46:06.384Z,100749.82
2023-02-04T04:48:32.717Z,100760.69
2023-02-04T04:50:59.210Z,100770.30
2023-02-04T04:53:25.664Z,100779.72
2023-02-04T04:55:51.998Z,100787.61
2023-02-04T04:58:18.343Z,100792.02
2023-02-04T05:00:44.759Z,100799.16
2023-02-04T05:03:11.188Z,100803.62
2023-02-04T05:05:40.249Z,100813.98
2023-02-04T05:08:12.752Z,100830.04
2023-02-04T05:10:40.039Z,100839.48
2023-02-04T05:13:06.825Z,100840.21
2023-02-04T05:15:33.571Z,100844.77
2023-02-04T05:18:00.236Z,100849.42
2023-02-04T05:20:26.705Z,100863.25
2023-02-04T05:22:55.280Z,100874.67
2023-02-04T05:25:22.637Z,100878.95
2023-02-04T05:27:49.321Z,100883.30
2023-02-04T05:30:15.763Z,100887.98
2023-02-04T05:32:42.260Z,100893.91
2023-02-04T05:35:09.027Z,100899.87
2023-02-04T05:37:35.394Z,100904.40
2023-02-04T05:40:01.931Z,100914.77
2023-02-04T05:42:28.232Z,100922.91
2023-02-04T05:44:54.543Z,100931.28
2023-02-04T05:47:20.857Z,100937.53
2023-02-04T05:49:47.177Z,100945.15
2023-02-04T05:52:13.567Z,100950.52
2023-02-04T05:54:39.957Z,100960.30
2023-02-04T05:57:06.754Z,100971.43
2023-02-04T05:59:33.157Z,100982.41
2023-02-04T06:01:59.614Z,100991.84
2023-02-04T06:04:26.005Z,101001.78
2023-02-04T06:06:52.412Z,101008.81
2023-02-04T06:09:18.890Z,101014.66
2023-02-04T06:11:45.305Z,101024.25
2023-02-04T06:14:11.688Z,101035.21
2023-02-04T06:16:38.113Z,101040.87
2023-02-04T06:19:04.764Z,101048.27
2023-02-04T06:21:31.204Z,101055.15
2023-02-04T06:23:57.558Z,101063.08
2023-02-04T06:26:23.953Z,101071.69
2023-02-04T06:28:50.422Z,101074.68
2023-02-04T06:31:16.817Z,101088.30
2023-02-04T06:33:43.363Z,101098.88
2023-02-04T06:36:09.725Z,101103.89
2023-02-04T06:38:36.039Z,101114.04
2023-02-04T06:41:02.436Z,101114.64
2023-02-04T06:43:28.793Z,101120.38
2023-02-04T06:45:55.297Z,101130.63
2023-02-04T06:48:21.916Z,101134.83
2023-02-04T06:50:48.700Z,101140.66
2023-02-04T06:53:15.099Z,101150.00
2023-02-04T06:55:41.668Z,101159.38
2023-02-04T06:58:08.911Z,101162.61
2023-02-04T07:00:35.488Z,101169.19
2023-02-04T07:03:01.950Z,101176.28
2023-02-04T07:05:28.345Z,101186.84
2023-02-04T07:07:54.695Z,101194.48
2023-02-04T07:13:03.737Z,101206.79
2023-02-04T07:15:31.868Z,101218.61
2023-02-04T07:18:00.384Z,101224.41
2023-02-04T07:20:28.200Z,101228.52
2023-02-04T07:22:55.948Z,101231.14
2023-02-04T07:25:23.854Z,101237.58
2023-02-04T07:27:51.674Z,101245.02
2023-02-04T07:30:19.548Z,101253.73
2023-02-04T07:32:47.322Z,101254.95
2023-02-04T07:35:17.876Z,101260.92
2023-02-04T07:37:45.691Z,101271.80
2023-02-04T07:40:13.726Z,101278.25
2023-02-04T07:42:41.457Z,101280.33
2023-02-04T07:45:12.036Z,101285.14
2023-02-04T07:47:39.721Z,101290.88
2023-02-04T07:50:07.683Z,101294.00
2023-02-04T07:52:35.516Z,101297.14
2023-02-04T07:55:03.671Z,101302.65
2023-02-04T07:57:31.690Z,101303.87
2023-02-04T07:59:59.518Z,101304.48
2023-02-04T08:02:27.588Z,101312.13
2023-02-04T08:04:55.485Z,101312.83
2023-02-04T08:07:23.181Z,101315.02
2023-02-04T08:09:50.959Z,101320.36
2023-02-04T08:12:18.723Z,101321.74
2023-02-04T08:14:46.467Z,101329.45
2023-02-04T08:17:14.169Z,101329.95
2023-02-04T08:19:42.396Z,101336.40
2023-02-04T08:22:11.657Z,101343.12
2023-02-04T08:24:39.474Z,101345.02
2023-02-04T08:27:07.338Z,101344.10
2023-02-04T08:29:35.109Z,101351.61
2023-02-04T08:32:04.208Z,101349.73
2023-02-04T08:34:32.270Z,101352.92
2023-02-04T08:37:00.015Z,101358.43
2023-02-04T08:39:27.786Z,101360.35
2023-02-04T08:41:55.528Z,101364.39
2023-02-04T08:44:23.235Z,101375.80
2023-02-04T08:46:51.122Z,101380.59
2023-02-04T08:49:18.881Z,101389.95
2023-02-04T08:51:46.683Z,101398.23
2023-02-04T08:54:14.373Z,101403.38
2023-02-04T08:56:42.100Z,101405.41
2023-02-04T08:59:09.902Z,101413.94
2023-02-04T09:01:38.040Z,101412.69
2023-02-04T09:04:05.747Z,101409.63
2023-02-04T09:06:33.577Z,101415.81
2023-02-04T09:09:01.689Z,101422.67
2023-02-04T09:11:29.612Z,101424.48
2023-02-04T09:13:57.517Z,101425.77
2023-02-04T09:16:25.433Z,101435.92
2023-02-04T09:18:53.323Z,101434.51
2023-02-04T09:21:21.096Z,101438.20
2023-02-04T09:23:48.831Z,101444.65
2023-02-04T09:26:16.610Z,101443.18
2023-02-04T09:28:44.532Z,101441.92
2023-02-04T09:31:12.384Z,101437.50
2023-02-04T09:33:40.809Z,101437.70
2023-02-04T09:36:09.981Z,101436.97
2023-02-04T09:38:37.944Z,101433.61
2023-02-04T09:41:08.517Z,101440.30
2023-02-04T09:43:40.420Z,101449.14
2023-02-04T09:46:18.173Z,101454.00
2023-02-04T09:48:46.132Z,101457.95
2023-02-04T09:51:19.246Z,101464.34
2023-02-04T09:53:48.153Z,101467.98
2023-02-04T09:56:17.184Z,101464.73
2023-02-04T09:58:44.963Z,101466.09
2023-02-04T10:01:18.969Z,101469.02
2023-02-04T10:03:51.340Z,101470.61
2023-02-04T10:06:21.310Z,101467.36
2023-02-04T10:08:51.169Z,101476.41
2023-02-04T10:11:21.317Z,101483.26
2023-02-04T10:13:51.696Z,101491.89
2023-02-04T10:16:23.767Z,101502.30
2023-02-04T10:18:51.560Z,101502.39
2023-02-04T10:21:24.522Z,101504.39
2023-02-04T10:23:55.870Z,101504.55
2023-02-04T10:26:27.360Z,101500.02
2023-02-04T10:28:59.916Z,101500.08
2023-02-04T10:31:30.262Z,101505.94
2023-02-04T10:34:04.237Z,101504.17
2023-02-04T10:36:32.076Z,101503.83
2023-02-04T10:39:23.819Z,101501.73
2023-02-04T10:41:56.875Z,101509.63
2023-02-04T10:44:33.561Z,101512.84
2023-02-04T10:47:15.281Z,101509.76
2023-02-04T10:49:53.257Z,101512.59
2023-02-04T10:52:23.220Z,101517.87
2023-02-04T10:54:51.250Z,101518.83
2023-02-04T10:57:28.472Z,101516.59
2023-02-04T11:00:00.096Z,101523.44
2023-02-04T11:02:46.098Z,101519.95
2023-02-04T11:05:20.714Z,101523.35
2023-02-04T11:07:49.638Z,101532.14
2023-02-04T11:10:24.232Z,101528.05
2023-02-04T11:12:55.016Z,101529.42
2023-02-04T11:15:47.980Z,101530.73
2023-02-04T11:18:20.546Z,101531.30
2023-02-04T11:20:50.765Z,101528.52
2023-02-04T11:23:27.314Z,101525.45
2023-02-04T11:26:10.224Z,101529.11
2023-02-04T11:28:41.176Z,101527.42
2023-02-04T11:31:29.580Z,101529.01
2023-02-04T11:34:15.951Z,101527.66
2023-02-04T11:37:02.006Z,101541.27
2023-02-04T11:39:37.450Z,101538.73
2023-02-04T11:42:15.092Z,101539.11
2023-02-04T11:44:48.180Z,101540.28
2023-02-04T11:47:16.023Z,101548.19
2023-02-04T11:49:47.077Z,101544.64
2023-02-04T11:52:14.804Z,101543.90
2023-02-04T11:54:42.500Z,101539.88
2023-02-04T11:57:12.159Z,101538.23
2023-02-04T11:59:40.153Z,101542.14
2023-02-04T12:02:23.989Z,101539.65
2023-02-04T12:05:08.354Z,101540.29
2023-02-04T12:07:36.378Z,101546.44
2023-02-04T12:10:33.649Z,101550.55
2023-02-04T12:13:13.664Z,101553.20
2023-02-04T12:15:41.513Z,101556.93
2023-02-04T12:18:14.895Z,101555.97
2023-02-04T12:20:42.582Z,101557.09
2023-02-04T12:23:10.313Z,101552.57
2023-02-04T12:25:38.030Z,101556.95
2023-02-04T12:28:05.785Z,101558.10
2023-02-04T12:30:33.528Z,101560.45
2023-02-04T12:33:01.263Z,101561.35
2023-02-04T12:35:29.018Z,101567.98
2023-02-04T12:37:57.855Z,101575.79
2023-02-04T12:40:25.724Z,101573.23
2023-02-04T12:42:53.695Z,101576.79
2023-02-04T12:45:21.466Z,101578.66
2023-02-04T12:47:49.342Z,101575.95
2023-02-04T12:50:24.631Z,101580.67
2023-02-04T12:52:54.270Z,101585.64
2023-02-04T12:55:23.489Z,101590.70
2023-02-04T12:57:51.392Z,101591.88
2023-02-04T13:00:20.889Z,101590.98
2023-02-04T13:02:49.373Z,101594.59
2023-02-04T13:05:18.500Z,101596.29
2023-02-04T13:07:46.747Z,101596.23
2023-02-04T13:10:15.005Z,101602.98
2023-02-04T13:12:42.834Z,101600.83
2023-02-04T13:15:11.182Z,101601.17
2023-02-04T13:17:38.942Z,101605.68
2023-02-04T13:20:07.823Z,101612.52
2023-02-04T13:22:35.603Z,101610.16
2023-02-04T13:25:04.264Z,101612.95
2023-02-04T13:27:32.479Z,101619.91
2023-02-04T13:30:00.271Z,101620.02
2023-02-04T13:32:28.115Z,101622.61
2023-02-04T13:34:55.809Z,101620.73
2023-02-04T13:37:23.673Z,101617.52
2023-02-04T13:39:51.423Z,101626.08
2023-02-04T13:42:19.245Z,101631.77
2023-02-04T13:44:47.052Z,101635.85
2023-02-04T13:47:14.862Z,101642.61
2023-02-04T13:49:42.622Z,101646.86
2023-02-04T13:52:10.318Z,101649.86
2023-02-04T13:54:38.013Z,101647.13
2023-02-04T13:57:06.546Z,101647.75
2023-02-04T13:59:34.273Z,101650.32
2023-02-04T14:02:02.519Z,101652.51
2023-02-04T14:04:30.222Z,101656.29
2023-02-04T14:06:58.026Z,101657.06
2023-02-04T14:09:25.729Z,101656.04
2023-02-04T14:11:53.452Z,101667.69
2023-02-04T14:14:21.512Z,101666.06
2023-02-04T14:16:49.325Z,101669.60
2023-02-04T14:19:17.107Z,101671.99
2023-02-04T14:21:46.491Z,101678.73
2023-02-04T14:24:14.205Z,101675.39
2023-02-04T14:26:41.895Z,101671.05
2023-02-04T14:29:11.154Z,101673.54
2023-02-04T14:31:39.004Z,101673.44
2023-02-04T14:34:06.763Z,101673.36
2023-02-04T14:36:34.627Z,101673.08
2023-02-04T14:39:02.357Z,101678.46
2023-02-04T14:41:31.454Z,101685.15
2023-02-04T14:43:59.193Z,101693.31
2023-02-04T14:46:26.994Z,101690.86
2023-02-04T14:48:54.974Z,101694.61
2023-02-04T14:51:22.663Z,101692.85
2023-02-04T14:53:50.496Z,101693.11
2023-02-04T14:56:18.343Z,101697.77
2023-02-04T14:58:46.092Z,101706.08
2023-02-04T15:01:14.140Z,101707.98
2023-02-04T15:03:41.907Z,101714.41
2023-02-04T15:06:09.797Z,101722.50
2023-02-04T15:08:37.662Z,101722.98
2023-02-04T15:11:05.403Z,101723.75
2023-02-04T15:13:33.127Z,101724.45
2023-02-04T15:16:00.935Z,101725.83
2023-02-04T15:18:29.141Z,101724.36
2023-02-04T15:20:57.052Z,101739.21
2023-02-04T15:23:24.815Z,101740.06
2023-02-04T15:25:57.305Z,101737.92
2023-02-04T15:28:25.340Z,101736.91
2023-02-04T15:30:53.554Z,101736.75
2023-02-04T15:33:21.350Z,101742.16
2023-02-04T15:35:49.154Z,101749.66
2023-02-04T15:38:16.893Z,101754.98
2023-02-04T15:40:44.646Z,101758.55
2023-02-04T15:43:12.388Z,101763.31
2023-02-04T15:45:43.744Z,101765.70
2023-02-04T15:48:12.050Z,101766.70
2023-02-04T15:50:40.124Z,101773.22
2023-02-04T15:53:07.848Z,101778.67
2023-02-04T15:55:35.833Z,101780.77
2023-02-04T15:58:03.710Z,101783.24
2023-02-04T16:00:32.839Z,101788.98
2023-02-04T16:03:01.180Z,101792.95
2023-02-04T16:05:29.085Z,101800.81
2023-02-04T16:07:57.150Z,101800.64
2023-02-04T16:10:25.252Z,101805.86
2023-02-04T16:12:55.037Z,101804.97
2023-02-04T16:15:22.960Z,101805.56
2023-02-04T16:17:51.267Z,101809.13
2023-02-04T16:20:19.184Z,101814.45
2023-02-04T16:22:47.122Z,101812.93
2023-02-04T16:25:15.211Z,101816.89
2023-02-04T16:27:43.007Z,101823.81
2023-02-04T16:30:12.239Z,101821.23
2023-02-04T16:32:40.004Z,101826.82
2023-02-04T16:35:08.556Z,101830.46
2023-02-04T16:37:37.732Z,101835.73
2023-02-04T16:40:06.285Z,101836.06
2023-02-04T16:42:34.040Z,101839.80
2023-02-04T16:45:01.834Z,101837.83
2023-02-04T16:47:30.026Z,101844.99
2023-02-04T16:50:01.035Z,101846.34
2023-02-04T16:52:29.126Z,101846.25
2023-02-04T16:54:57.977Z,101851.88
2023-02-04T16:57:25.960Z,101857.82
2023-02-04T16:59:53.722Z,101859.61
2023-02-04T17:02:22.743Z,101863.20
2023-02-04T17:04:50.799Z,101859.32
2023-02-04T17:07:18.505Z,101862.65
2023-02-04T17:09:46.220Z,101868.16
2023-02-04T17:12:13.927Z,101868.48
2023-02-04T17:14:41.680Z,101873.91
2023-02-04T17:17:09.460Z,101877.22
2023-02-04T17:19:37.258Z,101875.09
2023-02-04T17:22:05.514Z,101878.71
2023-02-04T17:24:33.232Z,101881.06
2023-02-04T17:27:03.299Z,101882.77
2023-02-04T17:29:31.016Z,101888.92
2023-02-04T17:31:58.768Z,101896.80
2023-02-04T17:34:26.564Z,101898.27
2023-02-04T17:36:54.399Z,101897.68
2023-02-04T17:39:22.456Z,101899.66
2023-02-04T17:41:50.338Z,101903.61
2023-02-04T17:44:20.241Z,101909.94
2023-02-04T17:46:48.056Z,101912.05
2023-02-04T17:49:16.162Z,101912.47
2023-02-04T17:51:43.918Z,101918.16
2023-02-04T17:54:14.130Z,101926.33
2023-02-04T17:56:41.939Z,101928.48
2023-02-04T17:59:11.186Z,101933.33
2023-02-04T18:01:41.533Z,101936.02
2023-02-04T18:04:13.785Z,101939.55
2023-02-04T18:06:41.603Z,101943.27
2023-02-04T18:09:17.889Z,101944.66
2023-02-04T18:11:46.024Z,101946.16
2023-02-04T18:14:26.629Z,101945.27
2023-02-04T18:16:58.369Z,101947.54
2023-02-04T18:19:30.869Z,101955.57
2023-02-04T18:21:59.291Z,101960.02
2023-02-04T18:24:36.689Z,101961.06
2023-02-04T18:27:25.964Z,101962.74
2023-02-04T18:29:55.569Z,101963.34
2023-02-04T18:32:37.923Z,101966.54
2023-02-04T18:35:34.426Z,101970.29
2023-02-04T18:38:02.294Z,101971.55
2023-02-04T18:40:31.354Z,101975.25
2023-02-04T18:43:08.161Z,101975.08
2023-02-04T18:45:36.331Z,101974.58
2023-02-04T18:48:19.545Z,101974.29
2023-02-04T18:50:49.683Z,101974.10
2023-02-04T18:53:26.568Z,101974.16
2023-02-04T18:55:59.684Z,101978.45
2023-02-04T18:58:34.179Z,101984.09
2023-02-04T19:01:09.498Z,101986.60
2023-02-04T19:03:51.339Z,101991.17
2023-02-04T19:06:25.430Z,101993.06
2023-02-04T19:08:56.964Z,101991.94
2023-02-04T19:11:33.814Z,101992.22
2023-02-04T19:14:02.962Z,101991.40
2023-02-04T19:16:36.736Z,101988.93
2023-02-04T19:19:23.279Z,101993.30
2023-02-04T19:21:51.840Z,101999.39
2023-02-04T19:24:22.331Z,102001.44
2023-02-04T19:27:01.757Z,102001.74
2023-02-04T19:29:42.420Z,102004.04
2023-02-04T19:32:19.282Z,102014.06
2023-02-04T19:34:47.173Z,102018.32
2023-02-04T19:37:24.573Z,102021.73
2023-02-04T19:39:54.547Z,102026.73
2023-02-04T19:42:22.127Z,102026.98
2023-02-04T19:44:51.583Z,102020.23
2023-02-04T19:47:42.471Z,102024.87
2023-02-04T19:50:13.531Z,102026.26
2023-02-04T19:52:48.485Z,102024.59
2023-02-04T19:55:36.669Z,102030.61
2023-02-04T19:58:25.331Z,102032.32
2023-02-04T20:00:59.047Z,102037.49
2023-02-04T20:03:31.347Z,102037.83
2023-02-04T20:06:04.268Z,102041.13
2023-02-04T20:08:44.553Z,102043.02
2023-02-04T20:11:15.449Z,102043.63
2023-02-04T20:13:43.486Z,102049.64
2023-02-04T20:16:38.008Z,102053.92
2023-02-04T20:19:21.155Z,102054.27
2023-02-04T20:22:26.274Z,102061.98
2023-02-04T20:24:59.320Z,102064.72
2023-02-04T20:27:35.225Z,102067.16
2023-02-04T20:30:11.432Z,102070.73
2023-02-04T20:32:47.867Z,102068.47
2023-02-04T20:35:21.432Z,102067.27
2023-02-04T20:37:59.246Z,102065.08
2023-02-04T20:40:33.828Z,102073.36
2023-02-04T20:43:20.433Z,102079.21
2023-02-04T20:45:53.790Z,102081.71
2023-02-04T20:48:48.714Z,102080.19
2023-02-04T20:51:23.392Z,102085.55
2023-02-04T20:53:53.207Z,102078.48
2023-02-04T20:56:28.564Z,102080.74
2023-02-04T20:59:18.292Z,102087.88
2023-02-04T21:01:50.304Z,102092.38
2023-02-04T21:04:39.447Z,102094.62
2023-02-04T21:07:17.102Z,102104.11
2023-02-04T21:09:45.341Z,102112.25
2023-02-04T21:12:13.111Z,102118.80
2023-02-04T21:14:40.918Z,102117.31
2023-02-04T21:17:08.940Z,102118.66
2023-02-04T21:19:37.506Z,102122.67
2023-02-04T21:22:05.443Z,102126.95
2023-02-04T21:24:33.772Z,102126.23
2023-02-04T21:27:01.655Z,102126.33
2023-02-04T21:29:29.571Z,102126.30
2023-02-04T21:31:57.362Z,102133.27
2023-02-04T21:34:25.249Z,102132.81
2023-02-04T21:36:53.103Z,102138.84
2023-02-04T21:39:21.776Z,102137.36
2023-02-04T21:42:09.451Z,102139.85
2023-02-04T21:44:38.487Z,102138.46
2023-02-04T21:47:06.295Z,102140.11
2023-02-04T21:49:34.120Z,102145.61
2023-02-04T21:52:01.933Z,102151.52
2023-02-04T21:54:29.691Z,102155.27
2023-02-04T21:57:02.048Z,102157.52
2023-02-04T21:59:30.676Z,102161.81
2023-02-04T22:01:58.699Z,102167.09
2023-02-04T22:04:26.536Z,102171.06
2023-02-04T22:06:56.107Z,102173.80
2023-02-04T22:09:23.801Z,102173.30
2023-02-04T22:11:51.517Z,102172.49
2023-02-04T22:14:19.890Z,102172.25
2023-02-04T22:16:47.958Z,102169.45
2023-02-04T22:19:15.866Z,102176.67
2023-02-04T22:21:43.747Z,102176.78
2023-02-04T22:24:11.492Z,102186.58
2023-02-04T22:26:39.208Z,102188.95
2023-02-04T22:29:06.920Z,102190.91
2023-02-04T22:31:35.144Z,102192.11
2023-02-04T22:34:05.379Z,102193.14
2023-02-04T22:36:33.092Z,102201.14
2023-02-04T22:39:00.842Z,102204.30
2023-02-04T22:41:28.647Z,102201.77
2023-02-04T22:43:56.437Z,102207.70
2023-02-04T22:46:24.216Z,102211.08
2023-02-04T22:48:51.968Z,102215.19
2023-02-04T22:51:19.875Z,102223.31
2023-02-04T22:53:47.645Z,102229.68
2023-02-04T22:56:15.640Z,102234.31
2023-02-04T22:58:43.418Z,102241.00
2023-02-04T23:01:11.163Z,102242.12
2023-02-04T23:03:39.000Z,102243.34
2023-02-04T23:06:07.074Z,102253.10
2023-02-04T23:08:34.821Z,102255.10
2023-02-04T23:11:02.675Z,102260.34
2023-02-04T23:13:30.450Z,102262.16
2023-02-04T23:15:58.390Z,102261.80
2023-02-04T23:18:26.170Z,102265.03
2023-02-04T23:20:53.968Z,102272.06
2023-02-04T23:23:21.734Z,102269.79
2023-02-04T23:25:49.768Z,102269.80
2023-02-04T23:28:17.751Z,102267.70
2023-02-04T23:30:45.670Z,102272.66
2023-02-04T23:33:13.630Z,102269.77
2023-02-04T23:35:41.458Z,102270.22
2023-02-04T23:38:09.427Z,102273.97
2023-02-04T23:40:37.171Z,102278.38
2023-02-04T23:43:05.014Z,102282.07
2023-02-04T23:45:33.482Z,102275.27
2023-02-04T23:48:01.540Z,102277.27
2023-02-04T23:50:29.278Z,102278.74
2023-02-04T23:52:57.341Z,102276.95
2023-02-04T23:55:25.447Z,102281.20
2023-02-04T23:57:53.384Z,102280.41
